sensor_id;sensor_type;location;lat;lon;timestamp;P1;durP1;ratioP1;P2;durP2;ratioP2
70320;SDS011;61127;55.826;37.046;2023-04-12T00:01:56;39.33;;;18.00;;
70320;SDS011;61127;55.826;37.046;2023-04-12T00:04:22;43.10;;;19.33;;
70320;SDS011;61127;55.826;37.046;2023-04-12T00:06:52;35.42;;;19.17;;
70320;SDS011;61127;55.826;37.046;2023-04-12T00:09:19;39.58;;;19.30;;
70320;SDS011;61127;55.826;37.046;2023-04-12T00:11:45;40.75;;;19.08;;
70320;SDS011;61127;55.826;37.046;2023-04-12T00:14:10;40.87;;;19.43;;
70320;SDS011;61127;55.826;37.046;2023-04-12T00:16:36;38.13;;;18.65;;
70320;SDS011;61127;55.826;37.046;2023-04-12T00:19:03;41.63;;;19.17;;
70320;SDS011;61127;55.826;37.046;2023-04-12T00:21:30;44.83;;;19.17;;
70320;SDS011;61127;55.826;37.046;2023-04-12T00:23:57;36.05;;;19.08;;
70320;SDS011;61127;55.826;37.046;2023-04-12T00:26:24;43.08;;;19.75;;
70320;SDS011;61127;55.826;37.046;2023-04-12T00:28:50;46.45;;;19.52;;
70320;SDS011;61127;55.826;37.046;2023-04-12T00:31:18;36.72;;;19.33;;
70320;SDS011;61127;55.826;37.046;2023-04-12T00:33:44;39.37;;;18.43;;
70320;SDS011;61127;55.826;37.046;2023-04-12T00:36:10;40.17;;;19.15;;
70320;SDS011;61127;55.826;37.046;2023-04-12T00:38:36;40.58;;;18.58;;
70320;SDS011;61127;55.826;37.046;2023-04-12T00:41:02;39.03;;;18.97;;
70320;SDS011;61127;55.826;37.046;2023-04-12T00:43:28;38.78;;;18.50;;
70320;SDS011;61127;55.826;37.046;2023-04-12T00:45:54;34.08;;;18.92;;
70320;SDS011;61127;55.826;37.046;2023-04-12T00:48:25;36.70;;;18.92;;
70320;SDS011;61127;55.826;37.046;2023-04-12T00:50:52;36.30;;;18.63;;
70320;SDS011;61127;55.826;37.046;2023-04-12T00:53:22;40.30;;;19.13;;
70320;SDS011;61127;55.826;37.046;2023-04-12T00:55:48;41.13;;;18.27;;
70320;SDS011;61127;55.826;37.046;2023-04-12T00:58:15;39.90;;;18.95;;
70320;SDS011;61127;55.826;37.046;2023-04-12T01:00:42;40.35;;;19.42;;
70320;SDS011;61127;55.826;37.046;2023-04-12T01:03:20;35.63;;;18.17;;
70320;SDS011;61127;55.826;37.046;2023-04-12T01:06:31;37.92;;;18.42;;
70320;SDS011;61127;55.826;37.046;2023-04-12T01:14:27;39.75;;;19.35;;
70320;SDS011;61127;55.826;37.046;2023-04-12T01:17:01;36.40;;;19.00;;
70320;SDS011;61127;55.826;37.046;2023-04-12T01:19:36;44.42;;;19.20;;
70320;SDS011;61127;55.826;37.046;2023-04-12T01:28:11;39.67;;;18.83;;
70320;SDS011;61127;55.826;37.046;2023-04-12T01:30:40;39.20;;;18.90;;
70320;SDS011;61127;55.826;37.046;2023-04-12T01:33:09;42.08;;;19.42;;
70320;SDS011;61127;55.826;37.046;2023-04-12T01:35:36;39.50;;;19.00;;
70320;SDS011;61127;55.826;37.046;2023-04-12T01:38:04;38.33;;;18.95;;
70320;SDS011;61127;55.826;37.046;2023-04-12T01:40:31;43.28;;;19.33;;
70320;SDS011;61127;55.826;37.046;2023-04-12T01:43:07;37.73;;;19.93;;
70320;SDS011;61127;55.826;37.046;2023-04-12T01:45:37;35.05;;;18.33;;
70320;SDS011;61127;55.826;37.046;2023-04-12T01:48:04;41.53;;;19.30;;
70320;SDS011;61127;55.826;37.046;2023-04-12T01:53:12;39.67;;;19.40;;
70320;SDS011;61127;55.826;37.046;2023-04-12T01:55:42;41.03;;;18.53;;
70320;SDS011;61127;55.826;37.046;2023-04-12T01:58:17;36.75;;;18.83;;
70320;SDS011;61127;55.826;37.046;2023-04-12T02:00:46;36.08;;;18.02;;
70320;SDS011;61127;55.826;37.046;2023-04-12T02:03:14;38.05;;;18.70;;
70320;SDS011;61127;55.826;37.046;2023-04-12T02:05:40;33.67;;;18.00;;
70320;SDS011;61127;55.826;37.046;2023-04-12T02:08:07;40.53;;;18.63;;
70320;SDS011;61127;55.826;37.046;2023-04-12T02:10:33;38.47;;;19.65;;
70320;SDS011;61127;55.826;37.046;2023-04-12T02:13:01;37.13;;;19.25;;
70320;SDS011;61127;55.826;37.046;2023-04-12T02:15:29;41.45;;;18.38;;
70320;SDS011;61127;55.826;37.046;2023-04-12T02:17:55;36.67;;;18.90;;
70320;SDS011;61127;55.826;37.046;2023-04-12T02:20:22;39.45;;;18.00;;
70320;SDS011;61127;55.826;37.046;2023-04-12T02:22:51;35.40;;;19.38;;
70320;SDS011;61127;55.826;37.046;2023-04-12T02:25:18;37.47;;;18.50;;
70320;SDS011;61127;55.826;37.046;2023-04-12T02:27:44;35.55;;;17.90;;
70320;SDS011;61127;55.826;37.046;2023-04-12T02:30:12;33.67;;;16.87;;
70320;SDS011;61127;55.826;37.046;2023-04-12T02:32:39;38.28;;;18.30;;
70320;SDS011;61127;55.826;37.046;2023-04-12T02:35:11;41.72;;;18.27;;
70320;SDS011;61127;55.826;37.046;2023-04-12T02:37:41;30.63;;;17.50;;
70320;SDS011;61127;55.826;37.046;2023-04-12T02:40:08;40.25;;;18.75;;
70320;SDS011;61127;55.826;37.046;2023-04-12T02:42:37;36.40;;;18.07;;
70320;SDS011;61127;55.826;37.046;2023-04-12T02:45:04;29.75;;;17.13;;
70320;SDS011;61127;55.826;37.046;2023-04-12T02:47:30;38.42;;;18.83;;
70320;SDS011;61127;55.826;37.046;2023-04-12T02:49:59;36.38;;;17.67;;
70320;SDS011;61127;55.826;37.046;2023-04-12T02:52:25;32.28;;;16.98;;
70320;SDS011;61127;55.826;37.046;2023-04-12T02:55:03;31.37;;;17.03;;
70320;SDS011;61127;55.826;37.046;2023-04-12T02:57:29;39.40;;;17.60;;
70320;SDS011;61127;55.826;37.046;2023-04-12T02:59:55;35.42;;;18.25;;
70320;SDS011;61127;55.826;37.046;2023-04-12T03:02:24;31.88;;;17.83;;
70320;SDS011;61127;55.826;37.046;2023-04-12T03:04:54;38.77;;;16.83;;
70320;SDS011;61127;55.826;37.046;2023-04-12T03:07:30;34.95;;;17.05;;
70320;SDS011;61127;55.826;37.046;2023-04-12T03:09:57;35.42;;;18.33;;
70320;SDS011;61127;55.826;37.046;2023-04-12T03:12:24;32.20;;;17.23;;
70320;SDS011;61127;55.826;37.046;2023-04-12T03:15:01;36.65;;;18.05;;
70320;SDS011;61127;55.826;37.046;2023-04-12T03:17:28;35.80;;;17.07;;
70320;SDS011;61127;55.826;37.046;2023-04-12T03:19:54;45.08;;;18.15;;
70320;SDS011;61127;55.826;37.046;2023-04-12T03:22:24;33.28;;;17.85;;
70320;SDS011;61127;55.826;37.046;2023-04-12T03:24:55;35.05;;;17.80;;
70320;SDS011;61127;55.826;37.046;2023-04-12T03:27:21;35.67;;;18.42;;
70320;SDS011;61127;55.826;37.046;2023-04-12T03:29:48;33.93;;;17.13;;
70320;SDS011;61127;55.826;37.046;2023-04-12T03:32:18;36.38;;;18.40;;
70320;SDS011;61127;55.826;37.046;2023-04-12T03:34:46;39.63;;;18.80;;
70320;SDS011;61127;55.826;37.046;2023-04-12T03:37:15;44.58;;;19.38;;
70320;SDS011;61127;55.826;37.046;2023-04-12T03:39:41;42.50;;;20.23;;
70320;SDS011;61127;55.826;37.046;2023-04-12T03:42:14;40.20;;;22.00;;
70320;SDS011;61127;55.826;37.046;2023-04-12T03:44:42;46.78;;;22.70;;
70320;SDS011;61127;55.826;37.046;2023-04-12T03:47:11;43.78;;;20.90;;
70320;SDS011;61127;55.826;37.046;2023-04-12T03:49:37;42.28;;;21.65;;
70320;SDS011;61127;55.826;37.046;2023-04-12T03:52:06;44.08;;;20.52;;
70320;SDS011;61127;55.826;37.046;2023-04-12T03:54:33;41.93;;;20.90;;
70320;SDS011;61127;55.826;37.046;2023-04-12T03:57:03;41.70;;;19.50;;
70320;SDS011;61127;55.826;37.046;2023-04-12T03:59:42;41.30;;;20.48;;
70320;SDS011;61127;55.826;37.046;2023-04-12T04:02:09;39.75;;;19.80;;
70320;SDS011;61127;55.826;37.046;2023-04-12T04:04:41;40.53;;;19.60;;
70320;SDS011;61127;55.826;37.046;2023-04-12T04:07:11;39.10;;;18.80;;
70320;SDS011;61127;55.826;37.046;2023-04-12T04:09:42;41.67;;;18.75;;
70320;SDS011;61127;55.826;37.046;2023-04-12T04:12:10;38.35;;;18.58;;
70320;SDS011;61127;55.826;37.046;2023-04-12T04:14:40;35.28;;;18.88;;
70320;SDS011;61127;55.826;37.046;2023-04-12T04:17:09;31.88;;;18.63;;
70320;SDS011;61127;55.826;37.046;2023-04-12T04:19:35;34.53;;;18.00;;
70320;SDS011;61127;55.826;37.046;2023-04-12T04:22:01;33.70;;;18.08;;
70320;SDS011;61127;55.826;37.046;2023-04-12T04:24:27;34.85;;;18.77;;
70320;SDS011;61127;55.826;37.046;2023-04-12T04:26:58;31.42;;;17.27;;
70320;SDS011;61127;55.826;37.046;2023-04-12T04:29:26;32.92;;;18.20;;
70320;SDS011;61127;55.826;37.046;2023-04-12T04:31:53;34.13;;;17.63;;
70320;SDS011;61127;55.826;37.046;2023-04-12T04:34:21;32.55;;;18.20;;
70320;SDS011;61127;55.826;37.046;2023-04-12T04:36:54;31.27;;;18.58;;
70320;SDS011;61127;55.826;37.046;2023-04-12T04:39:25;31.70;;;18.25;;
70320;SDS011;61127;55.826;37.046;2023-04-12T04:41:53;34.90;;;19.25;;
70320;SDS011;61127;55.826;37.046;2023-04-12T04:44:35;36.27;;;17.80;;
70320;SDS011;61127;55.826;37.046;2023-04-12T04:47:04;36.85;;;19.00;;
70320;SDS011;61127;55.826;37.046;2023-04-12T04:49:33;34.30;;;19.70;;
70320;SDS011;61127;55.826;37.046;2023-04-12T04:52:23;37.28;;;19.67;;
70320;SDS011;61127;55.826;37.046;2023-04-12T04:54:52;38.03;;;21.48;;
70320;SDS011;61127;55.826;37.046;2023-04-12T04:57:23;33.70;;;19.40;;
70320;SDS011;61127;55.826;37.046;2023-04-12T04:59:54;31.25;;;19.83;;
70320;SDS011;61127;55.826;37.046;2023-04-12T05:02:21;36.83;;;19.48;;
70320;SDS011;61127;55.826;37.046;2023-04-12T05:04:47;34.75;;;18.92;;
70320;SDS011;61127;55.826;37.046;2023-04-12T05:07:17;35.38;;;20.48;;
70320;SDS011;61127;55.826;37.046;2023-04-12T05:09:45;35.50;;;19.30;;
70320;SDS011;61127;55.826;37.046;2023-04-12T05:12:11;36.55;;;20.42;;
70320;SDS011;61127;55.826;37.046;2023-04-12T05:14:40;34.83;;;19.92;;
70320;SDS011;61127;55.826;37.046;2023-04-12T05:17:07;34.28;;;19.27;;
70320;SDS011;61127;55.826;37.046;2023-04-12T05:19:33;34.47;;;20.37;;
70320;SDS011;61127;55.826;37.046;2023-04-12T05:21:59;36.33;;;19.83;;
70320;SDS011;61127;55.826;37.046;2023-04-12T05:24:25;38.27;;;21.33;;
70320;SDS011;61127;55.826;37.046;2023-04-12T05:26:50;35.40;;;19.75;;
70320;SDS011;61127;55.826;37.046;2023-04-12T05:29:16;37.13;;;20.17;;
70320;SDS011;61127;55.826;37.046;2023-04-12T05:31:43;30.88;;;19.67;;
70320;SDS011;61127;55.826;37.046;2023-04-12T05:34:17;39.58;;;21.63;;
70320;SDS011;61127;55.826;37.046;2023-04-12T05:36:50;39.60;;;21.93;;
70320;SDS011;61127;55.826;37.046;2023-04-12T05:39:16;39.13;;;21.05;;
70320;SDS011;61127;55.826;37.046;2023-04-12T05:41:42;41.45;;;22.20;;
70320;SDS011;61127;55.826;37.046;2023-04-12T05:44:07;50.73;;;22.70;;
70320;SDS011;61127;55.826;37.046;2023-04-12T05:46:35;41.50;;;21.20;;
70320;SDS011;61127;55.826;37.046;2023-04-12T05:49:02;36.53;;;20.30;;
70320;SDS011;61127;55.826;37.046;2023-04-12T05:51:27;36.07;;;19.67;;
70320;SDS011;61127;55.826;37.046;2023-04-12T05:53:55;38.22;;;20.55;;
70320;SDS011;61127;55.826;37.046;2023-04-12T05:56:22;39.33;;;20.02;;
70320;SDS011;61127;55.826;37.046;2023-04-12T05:58:47;33.73;;;20.03;;
70320;SDS011;61127;55.826;37.046;2023-04-12T06:01:13;34.42;;;20.00;;
70320;SDS011;61127;55.826;37.046;2023-04-12T06:03:41;33.22;;;18.10;;
70320;SDS011;61127;55.826;37.046;2023-04-12T06:06:09;36.72;;;17.13;;
70320;SDS011;61127;55.826;37.046;2023-04-12T06:08:35;34.13;;;17.95;;
70320;SDS011;61127;55.826;37.046;2023-04-12T06:11:05;33.33;;;17.90;;
70320;SDS011;61127;55.826;37.046;2023-04-12T06:13:32;33.75;;;17.50;;
70320;SDS011;61127;55.826;37.046;2023-04-12T06:15:58;34.63;;;17.92;;
70320;SDS011;61127;55.826;37.046;2023-04-12T06:18:24;23.45;;;16.88;;
70320;SDS011;61127;55.826;37.046;2023-04-12T06:20:50;32.13;;;16.07;;
70320;SDS011;61127;55.826;37.046;2023-04-12T06:23:16;24.33;;;14.20;;
70320;SDS011;61127;55.826;37.046;2023-04-12T06:25:44;23.25;;;13.77;;
70320;SDS011;61127;55.826;37.046;2023-04-12T06:28:12;21.55;;;13.75;;
70320;SDS011;61127;55.826;37.046;2023-04-12T06:30:44;24.80;;;14.68;;
70320;SDS011;61127;55.826;37.046;2023-04-12T06:33:10;26.23;;;15.07;;
70320;SDS011;61127;55.826;37.046;2023-04-12T06:35:36;25.25;;;13.95;;
70320;SDS011;61127;55.826;37.046;2023-04-12T06:38:02;25.42;;;14.35;;
70320;SDS011;61127;55.826;37.046;2023-04-12T06:40:28;25.27;;;13.20;;
70320;SDS011;61127;55.826;37.046;2023-04-12T06:42:54;23.52;;;13.18;;
70320;SDS011;61127;55.826;37.046;2023-04-12T06:45:21;21.85;;;12.15;;
70320;SDS011;61127;55.826;37.046;2023-04-12T06:47:47;21.60;;;11.17;;
70320;SDS011;61127;55.826;37.046;2023-04-12T06:50:13;17.40;;;10.70;;
70320;SDS011;61127;55.826;37.046;2023-04-12T06:52:39;20.10;;;12.30;;
70320;SDS011;61127;55.826;37.046;2023-04-12T06:55:05;21.23;;;11.35;;
70320;SDS011;61127;55.826;37.046;2023-04-12T06:57:32;22.40;;;11.97;;
70320;SDS011;61127;55.826;37.046;2023-04-12T06:59:57;20.35;;;12.27;;
70320;SDS011;61127;55.826;37.046;2023-04-12T07:02:23;31.23;;;20.40;;
70320;SDS011;61127;55.826;37.046;2023-04-12T07:04:52;37.83;;;24.73;;
70320;SDS011;61127;55.826;37.046;2023-04-12T07:07:18;29.58;;;18.63;;
70320;SDS011;61127;55.826;37.046;2023-04-12T07:09:47;24.90;;;16.33;;
70320;SDS011;61127;55.826;37.046;2023-04-12T07:12:13;22.17;;;13.23;;
70320;SDS011;61127;55.826;37.046;2023-04-12T07:14:39;24.93;;;12.03;;
70320;SDS011;61127;55.826;37.046;2023-04-12T07:17:05;20.45;;;11.38;;
70320;SDS011;61127;55.826;37.046;2023-04-12T07:19:31;25.37;;;11.80;;
70320;SDS011;61127;55.826;37.046;2023-04-12T07:21:57;17.10;;;10.38;;
70320;SDS011;61127;55.826;37.046;2023-04-12T07:24:23;71.95;;;36.35;;
70320;SDS011;61127;55.826;37.046;2023-04-12T07:26:51;36.72;;;19.25;;
70320;SDS011;61127;55.826;37.046;2023-04-12T07:29:18;24.87;;;13.33;;
70320;SDS011;61127;55.826;37.046;2023-04-12T07:31:44;18.35;;;10.50;;
70320;SDS011;61127;55.826;37.046;2023-04-12T07:34:10;18.80;;;10.73;;
70320;SDS011;61127;55.826;37.046;2023-04-12T07:36:39;20.40;;;10.98;;
70320;SDS011;61127;55.826;37.046;2023-04-12T07:39:05;34.33;;;15.33;;
70320;SDS011;61127;55.826;37.046;2023-04-12T07:41:31;21.05;;;11.90;;
70320;SDS011;61127;55.826;37.046;2023-04-12T07:43:56;29.63;;;14.50;;
70320;SDS011;61127;55.826;37.046;2023-04-12T07:46:23;18.40;;;10.40;;
70320;SDS011;61127;55.826;37.046;2023-04-12T07:48:50;17.13;;;10.48;;
70320;SDS011;61127;55.826;37.046;2023-04-12T07:51:16;15.25;;;10.90;;
70320;SDS011;61127;55.826;37.046;2023-04-12T07:53:41;21.13;;;11.37;;
70320;SDS011;61127;55.826;37.046;2023-04-12T07:56:12;54.20;;;28.37;;
70320;SDS011;61127;55.826;37.046;2023-04-12T07:58:38;21.83;;;12.20;;
70320;SDS011;61127;55.826;37.046;2023-04-12T08:01:04;20.67;;;10.98;;
70320;SDS011;61127;55.826;37.046;2023-04-12T08:03:31;23.27;;;12.20;;
70320;SDS011;61127;55.826;37.046;2023-04-12T08:05:57;22.47;;;10.27;;
70320;SDS011;61127;55.826;37.046;2023-04-12T08:08:23;19.45;;;10.73;;
70320;SDS011;61127;55.826;37.046;2023-04-12T08:10:49;16.75;;;10.90;;
70320;SDS011;61127;55.826;37.046;2023-04-12T08:13:16;24.92;;;12.05;;
70320;SDS011;61127;55.826;37.046;2023-04-12T08:15:42;19.87;;;11.40;;
70320;SDS011;61127;55.826;37.046;2023-04-12T08:18:08;21.00;;;11.82;;
70320;SDS011;61127;55.826;37.046;2023-04-12T08:20:34;17.45;;;11.02;;
70320;SDS011;61127;55.826;37.046;2023-04-12T08:23:00;15.98;;;10.77;;
70320;SDS011;61127;55.826;37.046;2023-04-12T08:25:26;18.40;;;11.30;;
70320;SDS011;61127;55.826;37.046;2023-04-12T08:27:52;18.80;;;9.95;;
70320;SDS011;61127;55.826;37.046;2023-04-12T08:30:18;15.55;;;10.35;;
70320;SDS011;61127;55.826;37.046;2023-04-12T08:32:50;17.77;;;9.70;;
70320;SDS011;61127;55.826;37.046;2023-04-12T08:35:17;16.45;;;9.95;;
70320;SDS011;61127;55.826;37.046;2023-04-12T08:37:43;14.38;;;10.00;;
70320;SDS011;61127;55.826;37.046;2023-04-12T08:40:09;14.98;;;9.00;;
70320;SDS011;61127;55.826;37.046;2023-04-12T08:42:35;14.17;;;9.10;;
70320;SDS011;61127;55.826;37.046;2023-04-12T08:45:03;13.45;;;8.70;;
70320;SDS011;61127;55.826;37.046;2023-04-12T08:47:31;15.57;;;8.98;;
70320;SDS011;61127;55.826;37.046;2023-04-12T08:49:59;14.85;;;9.07;;
70320;SDS011;61127;55.826;37.046;2023-04-12T08:52:29;13.50;;;9.00;;
70320;SDS011;61127;55.826;37.046;2023-04-12T08:54:57;16.03;;;8.63;;
70320;SDS011;61127;55.826;37.046;2023-04-12T08:57:23;12.95;;;8.20;;
70320;SDS011;61127;55.826;37.046;2023-04-12T08:59:50;13.43;;;9.00;;
70320;SDS011;61127;55.826;37.046;2023-04-12T09:02:17;14.52;;;8.68;;
70320;SDS011;61127;55.826;37.046;2023-04-12T09:04:49;12.43;;;8.33;;
70320;SDS011;61127;55.826;37.046;2023-04-12T09:07:16;17.02;;;8.20;;
70320;SDS011;61127;55.826;37.046;2023-04-12T09:09:44;13.55;;;7.95;;
70320;SDS011;61127;55.826;37.046;2023-04-12T09:12:11;12.05;;;7.75;;
70320;SDS011;61127;55.826;37.046;2023-04-12T09:14:38;13.75;;;8.73;;
70320;SDS011;61127;55.826;37.046;2023-04-12T09:17:05;15.83;;;9.77;;
70320;SDS011;61127;55.826;37.046;2023-04-12T09:19:49;18.92;;;9.75;;
70320;SDS011;61127;55.826;37.046;2023-04-12T09:22:15;15.10;;;9.88;;
70320;SDS011;61127;55.826;37.046;2023-04-12T09:24:48;16.48;;;9.32;;
70320;SDS011;61127;55.826;37.046;2023-04-12T09:27:16;12.02;;;9.75;;
70320;SDS011;61127;55.826;37.046;2023-04-12T09:29:45;15.57;;;10.33;;
70320;SDS011;61127;55.826;37.046;2023-04-12T09:32:23;17.48;;;10.25;;
70320;SDS011;61127;55.826;37.046;2023-04-12T09:34:54;12.88;;;10.00;;
70320;SDS011;61127;55.826;37.046;2023-04-12T09:37:22;15.30;;;10.20;;
70320;SDS011;61127;55.826;37.046;2023-04-12T09:39:58;13.93;;;10.25;;
70320;SDS011;61127;55.826;37.046;2023-04-12T09:42:28;16.77;;;10.43;;
70320;SDS011;61127;55.826;37.046;2023-04-12T09:44:56;18.17;;;10.95;;
70320;SDS011;61127;55.826;37.046;2023-04-12T09:47:38;19.83;;;10.35;;
70320;SDS011;61127;55.826;37.046;2023-04-12T09:50:05;14.82;;;10.23;;
70320;SDS011;61127;55.826;37.046;2023-04-12T09:52:35;16.00;;;11.10;;
70320;SDS011;61127;55.826;37.046;2023-04-12T09:55:06;15.47;;;10.80;;
70320;SDS011;61127;55.826;37.046;2023-04-12T09:57:42;16.50;;;11.00;;
70320;SDS011;61127;55.826;37.046;2023-04-12T10:00:09;18.42;;;10.63;;
70320;SDS011;61127;55.826;37.046;2023-04-12T10:02:42;15.13;;;10.52;;
70320;SDS011;61127;55.826;37.046;2023-04-12T10:05:12;12.50;;;10.48;;
70320;SDS011;61127;55.826;37.046;2023-04-12T10:07:41;10.97;;;9.63;;
70320;SDS011;61127;55.826;37.046;2023-04-12T10:10:08;12.98;;;10.00;;
70320;SDS011;61127;55.826;37.046;2023-04-12T10:12:39;14.65;;;9.82;;
70320;SDS011;61127;55.826;37.046;2023-04-12T10:15:06;15.25;;;10.05;;
70320;SDS011;61127;55.826;37.046;2023-04-12T10:17:41;14.63;;;9.93;;
70320;SDS011;61127;55.826;37.046;2023-04-12T10:20:15;17.43;;;9.63;;
70320;SDS011;61127;55.826;37.046;2023-04-12T10:22:43;14.43;;;10.75;;
70320;SDS011;61127;55.826;37.046;2023-04-12T10:25:11;13.88;;;9.60;;
70320;SDS011;61127;55.826;37.046;2023-04-12T10:27:40;14.35;;;10.18;;
70320;SDS011;61127;55.826;37.046;2023-04-12T10:35:27;13.05;;;10.05;;
70320;SDS011;61127;55.826;37.046;2023-04-12T10:37:57;13.95;;;10.43;;
70320;SDS011;61127;55.826;37.046;2023-04-12T10:40:29;13.18;;;10.13;;
70320;SDS011;61127;55.826;37.046;2023-04-12T10:45:44;18.63;;;11.10;;
70320;SDS011;61127;55.826;37.046;2023-04-12T10:53:51;13.52;;;10.68;;
70320;SDS011;61127;55.826;37.046;2023-04-12T10:58:58;14.20;;;9.87;;
70320;SDS011;61127;55.826;37.046;2023-04-12T11:01:28;17.35;;;9.93;;
70320;SDS011;61127;55.826;37.046;2023-04-12T11:04:12;17.25;;;9.88;;
70320;SDS011;61127;55.826;37.046;2023-04-12T11:07:08;14.75;;;10.10;;
70320;SDS011;61127;55.826;37.046;2023-04-12T11:09:46;12.50;;;9.63;;
70320;SDS011;61127;55.826;37.046;2023-04-12T11:12:35;16.50;;;10.33;;
70320;SDS011;61127;55.826;37.046;2023-04-12T11:15:04;14.10;;;9.95;;
70320;SDS011;61127;55.826;37.046;2023-04-12T11:17:59;12.02;;;9.85;;
70320;SDS011;61127;55.826;37.046;2023-04-12T11:20:31;14.70;;;9.07;;
70320;SDS011;61127;55.826;37.046;2023-04-12T11:22:59;13.50;;;10.20;;
70320;SDS011;61127;55.826;37.046;2023-04-12T11:25:27;11.57;;;9.30;;
70320;SDS011;61127;55.826;37.046;2023-04-12T11:27:59;13.75;;;8.85;;
70320;SDS011;61127;55.826;37.046;2023-04-12T11:30:52;14.00;;;8.63;;
70320;SDS011;61127;55.826;37.046;2023-04-12T11:33:37;15.00;;;9.43;;
70320;SDS011;61127;55.826;37.046;2023-04-12T11:36:04;10.90;;;9.18;;
70320;SDS011;61127;55.826;37.046;2023-04-12T11:38:32;10.83;;;8.83;;
70320;SDS011;61127;55.826;37.046;2023-04-12T11:40:59;12.20;;;8.68;;
70320;SDS011;61127;55.826;37.046;2023-04-12T11:43:25;13.65;;;8.75;;
70320;SDS011;61127;55.826;37.046;2023-04-12T11:45:58;13.02;;;8.82;;
70320;SDS011;61127;55.826;37.046;2023-04-12T11:48:25;12.47;;;9.07;;
70320;SDS011;61127;55.826;37.046;2023-04-12T11:50:52;16.13;;;9.20;;
70320;SDS011;61127;55.826;37.046;2023-04-12T11:53:18;10.65;;;8.85;;
70320;SDS011;61127;55.826;37.046;2023-04-12T11:55:48;17.80;;;9.48;;
70320;SDS011;61127;55.826;37.046;2023-04-12T11:58:15;15.85;;;10.35;;
70320;SDS011;61127;55.826;37.046;2023-04-12T12:00:44;16.23;;;10.17;;
70320;SDS011;61127;55.826;37.046;2023-04-12T12:03:11;11.73;;;9.38;;
70320;SDS011;61127;55.826;37.046;2023-04-12T12:05:38;15.27;;;9.95;;
70320;SDS011;61127;55.826;37.046;2023-04-12T12:08:06;16.00;;;9.55;;
70320;SDS011;61127;55.826;37.046;2023-04-12T12:10:33;15.63;;;9.45;;
70320;SDS011;61127;55.826;37.046;2023-04-12T12:13:00;15.63;;;10.37;;
70320;SDS011;61127;55.826;37.046;2023-04-12T12:15:29;13.35;;;8.82;;
70320;SDS011;61127;55.826;37.046;2023-04-12T12:17:55;15.82;;;9.40;;
70320;SDS011;61127;55.826;37.046;2023-04-12T12:20:21;14.55;;;10.27;;
70320;SDS011;61127;55.826;37.046;2023-04-12T12:22:49;15.27;;;9.60;;
70320;SDS011;61127;55.826;37.046;2023-04-12T12:25:16;13.82;;;9.32;;
70320;SDS011;61127;55.826;37.046;2023-04-12T12:27:43;10.45;;;9.07;;
70320;SDS011;61127;55.826;37.046;2023-04-12T12:30:15;17.25;;;9.70;;
70320;SDS011;61127;55.826;37.046;2023-04-12T12:32:44;14.23;;;9.73;;
70320;SDS011;61127;55.826;37.046;2023-04-12T12:35:13;19.20;;;9.70;;
70320;SDS011;61127;55.826;37.046;2023-04-12T12:37:49;15.80;;;9.60;;
70320;SDS011;61127;55.826;37.046;2023-04-12T12:40:17;14.05;;;9.60;;
70320;SDS011;61127;55.826;37.046;2023-04-12T12:45:21;15.63;;;9.48;;
70320;SDS011;61127;55.826;37.046;2023-04-12T12:47:50;11.97;;;9.40;;
70320;SDS011;61127;55.826;37.046;2023-04-12T12:50:20;12.13;;;9.23;;
70320;SDS011;61127;55.826;37.046;2023-04-12T12:52:48;16.60;;;9.60;;
70320;SDS011;61127;55.826;37.046;2023-04-12T12:55:15;20.15;;;9.90;;
70320;SDS011;61127;55.826;37.046;2023-04-12T12:57:42;12.07;;;9.65;;
70320;SDS011;61127;55.826;37.046;2023-04-12T13:00:09;16.67;;;10.03;;
70320;SDS011;61127;55.826;37.046;2023-04-12T13:02:38;13.85;;;10.40;;
70320;SDS011;61127;55.826;37.046;2023-04-12T13:05:04;14.98;;;10.13;;
70320;SDS011;61127;55.826;37.046;2023-04-12T13:07:30;14.73;;;9.35;;
70320;SDS011;61127;55.826;37.046;2023-04-12T13:09:57;13.15;;;9.88;;
70320;SDS011;61127;55.826;37.046;2023-04-12T13:12:23;15.30;;;10.83;;
70320;SDS011;61127;55.826;37.046;2023-04-12T13:14:49;18.70;;;10.57;;
70320;SDS011;61127;55.826;37.046;2023-04-12T13:17:14;16.38;;;9.80;;
70320;SDS011;61127;55.826;37.046;2023-04-12T13:19:40;15.27;;;9.43;;
70320;SDS011;61127;55.826;37.046;2023-04-12T13:22:06;13.07;;;9.65;;
70320;SDS011;61127;55.826;37.046;2023-04-12T13:24:33;12.50;;;9.05;;
70320;SDS011;61127;55.826;37.046;2023-04-12T13:26:59;18.73;;;10.03;;
70320;SDS011;61127;55.826;37.046;2023-04-12T13:29:26;17.35;;;9.35;;
70320;SDS011;61127;55.826;37.046;2023-04-12T13:31:51;14.27;;;10.15;;
70320;SDS011;61127;55.826;37.046;2023-04-12T13:34:17;16.27;;;10.33;;
70320;SDS011;61127;55.826;37.046;2023-04-12T13:36:43;14.27;;;9.45;;
70320;SDS011;61127;55.826;37.046;2023-04-12T13:39:09;13.55;;;9.65;;
70320;SDS011;61127;55.826;37.046;2023-04-12T13:41:35;12.90;;;8.97;;
70320;SDS011;61127;55.826;37.046;2023-04-12T13:44:01;13.40;;;9.38;;
70320;SDS011;61127;55.826;37.046;2023-04-12T13:46:26;15.43;;;8.55;;
70320;SDS011;61127;55.826;37.046;2023-04-12T13:48:52;12.80;;;9.07;;
70320;SDS011;61127;55.826;37.046;2023-04-12T13:51:18;15.20;;;9.27;;
70320;SDS011;61127;55.826;37.046;2023-04-12T13:53:44;15.03;;;9.70;;
70320;SDS011;61127;55.826;37.046;2023-04-12T13:56:10;13.25;;;9.25;;
70320;SDS011;61127;55.826;37.046;2023-04-12T13:58:36;15.93;;;9.00;;
70320;SDS011;61127;55.826;37.046;2023-04-12T14:01:05;14.07;;;9.02;;
70320;SDS011;61127;55.826;37.046;2023-04-12T14:03:31;15.52;;;8.90;;
70320;SDS011;61127;55.826;37.046;2023-04-12T14:05:57;14.90;;;8.63;;
70320;SDS011;61127;55.826;37.046;2023-04-12T14:08:25;16.07;;;8.57;;
70320;SDS011;61127;55.826;37.046;2023-04-12T14:10:53;12.48;;;8.20;;
70320;SDS011;61127;55.826;37.046;2023-04-12T14:13:22;15.43;;;8.68;;
70320;SDS011;61127;55.826;37.046;2023-04-12T14:15:49;14.40;;;9.05;;
70320;SDS011;61127;55.826;37.046;2023-04-12T14:18:15;16.80;;;9.00;;
70320;SDS011;61127;55.826;37.046;2023-04-12T14:20:51;12.38;;;8.95;;
70320;SDS011;61127;55.826;37.046;2023-04-12T14:23:22;13.55;;;8.48;;
70320;SDS011;61127;55.826;37.046;2023-04-12T14:25:49;14.02;;;9.65;;
70320;SDS011;61127;55.826;37.046;2023-04-12T14:28:15;19.83;;;9.23;;
70320;SDS011;61127;55.826;37.046;2023-04-12T14:30:42;14.97;;;9.03;;
70320;SDS011;61127;55.826;37.046;2023-04-12T14:33:08;13.80;;;8.82;;
70320;SDS011;61127;55.826;37.046;2023-04-12T14:35:35;14.40;;;8.75;;
70320;SDS011;61127;55.826;37.046;2023-04-12T14:38:01;13.23;;;9.00;;
70320;SDS011;61127;55.826;37.046;2023-04-12T14:40:29;12.40;;;8.55;;
70320;SDS011;61127;55.826;37.046;2023-04-12T14:42:55;16.00;;;8.67;;
70320;SDS011;61127;55.826;37.046;2023-04-12T14:45:22;16.23;;;8.70;;
70320;SDS011;61127;55.826;37.046;2023-04-12T14:47:48;16.35;;;8.63;;
70320;SDS011;61127;55.826;37.046;2023-04-12T14:50:14;14.80;;;8.17;;
70320;SDS011;61127;55.826;37.046;2023-04-12T14:52:40;15.98;;;7.85;;
70320;SDS011;61127;55.826;37.046;2023-04-12T14:55:06;13.05;;;8.02;;